sensor_id;sensor_type;location;lat;lon;timestamp;P1;durP1;ratioP1;P2;durP2;ratioP2
5199;SDS011;2619;47.868;11.892;2024-03-29T00:00:43;5.43;;;4.30;;
5199;SDS011;2619;47.868;11.892;2024-03-29T00:03:12;8.03;;;4.73;;
5199;SDS011;2619;47.868;11.892;2024-03-29T00:05:37;11.90;;;6.27;;
5199;SDS011;2619;47.868;11.892;2024-03-29T00:08:03;8.07;;;5.07;;
5199;SDS011;2619;47.868;11.892;2024-03-29T00:10:30;6.10;;;4.50;;
5199;SDS011;2619;47.868;11.892;2024-03-29T00:12:55;4.70;;;3.10;;
5199;SDS011;2619;47.868;11.892;2024-03-29T00:15:21;6.10;;;3.00;;
5199;SDS011;2619;47.868;11.892;2024-03-29T00:17:47;4.00;;;2.20;;
5199;SDS011;2619;47.868;11.892;2024-03-29T00:20:12;5.40;;;2.40;;
5199;SDS011;2619;47.868;11.892;2024-03-29T00:22:38;3.13;;;1.80;;
5199;SDS011;2619;47.868;11.892;2024-03-29T00:25:04;3.67;;;1.90;;
5199;SDS011;2619;47.868;11.892;2024-03-29T00:27:29;4.20;;;2.57;;
5199;SDS011;2619;47.868;11.892;2024-03-29T00:29:55;4.37;;;2.43;;
5199;SDS011;2619;47.868;11.892;2024-03-29T00:32:21;3.80;;;1.90;;
5199;SDS011;2619;47.868;11.892;2024-03-29T00:34:50;6.10;;;3.03;;
5199;SDS011;2619;47.868;11.892;2024-03-29T00:37:17;6.03;;;4.30;;
5199;SDS011;2619;47.868;11.892;2024-03-29T00:39:43;6.30;;;4.33;;
5199;SDS011;2619;47.868;11.892;2024-03-29T00:42:09;4.03;;;3.20;;
5199;SDS011;2619;47.868;11.892;2024-03-29T00:44:37;5.10;;;3.60;;
5199;SDS011;2619;47.868;11.892;2024-03-29T00:47:06;5.50;;;3.67;;
5199;SDS011;2619;47.868;11.892;2024-03-29T00:49:32;6.27;;;3.13;;
5199;SDS011;2619;47.868;11.892;2024-03-29T00:51:57;4.40;;;2.73;;
5199;SDS011;2619;47.868;11.892;2024-03-29T00:54:23;5.67;;;3.67;;
5199;SDS011;2619;47.868;11.892;2024-03-29T00:56:49;8.30;;;5.00;;
5199;SDS011;2619;47.868;11.892;2024-03-29T00:59:15;4.50;;;2.60;;
5199;SDS011;2619;47.868;11.892;2024-03-29T01:01:40;6.27;;;3.77;;
5199;SDS011;2619;47.868;11.892;2024-03-29T01:04:06;6.13;;;3.90;;
5199;SDS011;2619;47.868;11.892;2024-03-29T01:06:32;7.47;;;4.87;;
5199;SDS011;2619;47.868;11.892;2024-03-29T01:08:57;6.80;;;4.07;;
5199;SDS011;2619;47.868;11.892;2024-03-29T01:11:23;6.97;;;4.77;;
5199;SDS011;2619;47.868;11.892;2024-03-29T01:13:48;7.87;;;5.07;;
5199;SDS011;2619;47.868;11.892;2024-03-29T01:16:14;9.37;;;5.50;;
5199;SDS011;2619;47.868;11.892;2024-03-29T01:18:40;10.40;;;5.80;;
5199;SDS011;2619;47.868;11.892;2024-03-29T01:21:08;8.57;;;5.77;;
5199;SDS011;2619;47.868;11.892;2024-03-29T01:23:34;7.90;;;4.40;;
5199;SDS011;2619;47.868;11.892;2024-03-29T01:25:59;5.77;;;3.67;;
5199;SDS011;2619;47.868;11.892;2024-03-29T01:28:25;4.00;;;2.13;;
5199;SDS011;2619;47.868;11.892;2024-03-29T01:30:51;4.97;;;2.90;;
5199;SDS011;2619;47.868;11.892;2024-03-29T01:33:18;6.20;;;3.43;;
5199;SDS011;2619;47.868;11.892;2024-03-29T01:35:43;5.80;;;3.40;;
5199;SDS011;2619;47.868;11.892;2024-03-29T01:38:09;7.20;;;3.37;;
5199;SDS011;2619;47.868;11.892;2024-03-29T01:40:34;10.13;;;6.87;;
5199;SDS011;2619;47.868;11.892;2024-03-29T01:43:00;6.57;;;4.40;;
5199;SDS011;2619;47.868;11.892;2024-03-29T01:45:26;7.93;;;4.77;;
5199;SDS011;2619;47.868;11.892;2024-03-29T01:47:53;8.30;;;4.97;;
5199;SDS011;2619;47.868;11.892;2024-03-29T01:50:19;5.93;;;3.57;;
5199;SDS011;2619;47.868;11.892;2024-03-29T01:52:45;5.03;;;2.93;;
5199;SDS011;2619;47.868;11.892;2024-03-29T01:55:11;4.43;;;2.47;;
5199;SDS011;2619;47.868;11.892;2024-03-29T01:57:37;3.90;;;2.50;;
5199;SDS011;2619;47.868;11.892;2024-03-29T02:00:03;4.63;;;2.90;;
5199;SDS011;2619;47.868;11.892;2024-03-29T02:02:31;5.17;;;2.90;;
5199;SDS011;2619;47.868;11.892;2024-03-29T02:04:57;5.27;;;3.40;;
5199;SDS011;2619;47.868;11.892;2024-03-29T02:07:24;3.97;;;2.90;;
5199;SDS011;2619;47.868;11.892;2024-03-29T02:09:50;4.70;;;3.13;;
5199;SDS011;2619;47.868;11.892;2024-03-29T02:12:15;4.97;;;2.83;;
5199;SDS011;2619;47.868;11.892;2024-03-29T02:14:41;6.43;;;3.37;;
5199;SDS011;2619;47.868;11.892;2024-03-29T02:17:07;5.37;;;3.13;;
5199;SDS011;2619;47.868;11.892;2024-03-29T02:19:33;5.53;;;3.20;;
5199;SDS011;2619;47.868;11.892;2024-03-29T02:21:59;5.33;;;3.27;;
5199;SDS011;2619;47.868;11.892;2024-03-29T02:24:26;6.83;;;3.70;;
5199;SDS011;2619;47.868;11.892;2024-03-29T02:26:53;4.00;;;2.43;;
5199;SDS011;2619;47.868;11.892;2024-03-29T02:29:21;4.60;;;3.37;;
5199;SDS011;2619;47.868;11.892;2024-03-29T02:31:46;4.40;;;2.90;;
5199;SDS011;2619;47.868;11.892;2024-03-29T02:34:12;4.93;;;3.30;;
5199;SDS011;2619;47.868;11.892;2024-03-29T02:36:38;6.67;;;3.13;;
5199;SDS011;2619;47.868;11.892;2024-03-29T02:39:03;5.30;;;3.30;;
5199;SDS011;2619;47.868;11.892;2024-03-29T02:41:29;6.57;;;3.10;;
5199;SDS011;2619;47.868;11.892;2024-03-29T02:43:55;4.87;;;2.97;;
5199;SDS011;2619;47.868;11.892;2024-03-29T02:46:21;5.10;;;3.10;;
5199;SDS011;2619;47.868;11.892;2024-03-29T02:48:47;5.40;;;3.20;;
5199;SDS011;2619;47.868;11.892;2024-03-29T02:51:12;5.70;;;3.70;;
5199;SDS011;2619;47.868;11.892;2024-03-29T02:53:38;4.50;;;2.67;;
5199;SDS011;2619;47.868;11.892;2024-03-29T02:56:04;4.20;;;2.73;;
5199;SDS011;2619;47.868;11.892;2024-03-29T02:58:32;4.70;;;2.53;;
5199;SDS011;2619;47.868;11.892;2024-03-29T03:01:05;4.97;;;2.67;;
5199;SDS011;2619;47.868;11.892;2024-03-29T03:03:31;5.63;;;3.97;;
5199;SDS011;2619;47.868;11.892;2024-03-29T03:05:57;6.00;;;3.10;;
5199;SDS011;2619;47.868;11.892;2024-03-29T03:08:22;5.03;;;2.80;;
5199;SDS011;2619;47.868;11.892;2024-03-29T03:11:07;4.50;;;2.93;;
5199;SDS011;2619;47.868;11.892;2024-03-29T03:13:32;4.20;;;2.60;;
5199;SDS011;2619;47.868;11.892;2024-03-29T03:15:58;4.50;;;2.90;;
5199;SDS011;2619;47.868;11.892;2024-03-29T03:18:23;4.90;;;2.83;;
5199;SDS011;2619;47.868;11.892;2024-03-29T03:23:18;4.33;;;2.77;;
5199;SDS011;2619;47.868;11.892;2024-03-29T03:25:43;4.60;;;2.83;;
5199;SDS011;2619;47.868;11.892;2024-03-29T03:28:09;4.67;;;2.60;;
5199;SDS011;2619;47.868;11.892;2024-03-29T03:30:39;4.67;;;2.60;;
5199;SDS011;2619;47.868;11.892;2024-03-29T03:33:05;6.03;;;2.60;;
5199;SDS011;2619;47.868;11.892;2024-03-29T03:35:31;4.10;;;2.60;;
5199;SDS011;2619;47.868;11.892;2024-03-29T03:37:56;3.90;;;2.43;;
5199;SDS011;2619;47.868;11.892;2024-03-29T03:40:22;4.87;;;2.60;;
5199;SDS011;2619;47.868;11.892;2024-03-29T03:42:47;4.80;;;2.70;;
5199;SDS011;2619;47.868;11.892;2024-03-29T03:45:13;5.00;;;3.13;;
5199;SDS011;2619;47.868;11.892;2024-03-29T03:47:39;3.53;;;2.23;;
5199;SDS011;2619;47.868;11.892;2024-03-29T03:50:04;5.87;;;3.23;;
5199;SDS011;2619;47.868;11.892;2024-03-29T03:52:30;5.83;;;3.00;;
5199;SDS011;2619;47.868;11.892;2024-03-29T03:54:56;6.83;;;3.07;;
5199;SDS011;2619;47.868;11.892;2024-03-29T03:57:21;5.63;;;2.90;;
5199;SDS011;2619;47.868;11.892;2024-03-29T03:59:49;6.23;;;2.97;;
5199;SDS011;2619;47.868;11.892;2024-03-29T04:02:14;5.03;;;2.90;;
5199;SDS011;2619;47.868;11.892;2024-03-29T04:04:40;4.43;;;3.00;;
5199;SDS011;2619;47.868;11.892;2024-03-29T04:07:06;5.10;;;2.90;;
5199;SDS011;2619;47.868;11.892;2024-03-29T04:09:31;6.13;;;3.20;;
5199;SDS011;2619;47.868;11.892;2024-03-29T04:11:57;5.17;;;2.97;;
5199;SDS011;2619;47.868;11.892;2024-03-29T04:14:23;4.80;;;2.87;;
5199;SDS011;2619;47.868;11.892;2024-03-29T04:16:48;4.73;;;2.97;;
5199;SDS011;2619;47.868;11.892;2024-03-29T04:19:14;4.97;;;3.30;;
5199;SDS011;2619;47.868;11.892;2024-03-29T04:21:39;3.87;;;2.30;;
5199;SDS011;2619;47.868;11.892;2024-03-29T04:24:05;4.13;;;2.50;;
5199;SDS011;2619;47.868;11.892;2024-03-29T04:26:34;5.93;;;4.63;;
5199;SDS011;2619;47.868;11.892;2024-03-29T04:29:00;5.07;;;3.53;;
5199;SDS011;2619;47.868;11.892;2024-03-29T04:31:26;3.80;;;2.23;;
5199;SDS011;2619;47.868;11.892;2024-03-29T04:33:51;5.23;;;2.90;;
5199;SDS011;2619;47.868;11.892;2024-03-29T04:36:17;4.63;;;3.40;;
5199;SDS011;2619;47.868;11.892;2024-03-29T04:38:42;8.30;;;3.83;;
5199;SDS011;2619;47.868;11.892;2024-03-29T04:41:09;4.37;;;2.90;;
5199;SDS011;2619;47.868;11.892;2024-03-29T04:43:34;4.40;;;2.87;;
5199;SDS011;2619;47.868;11.892;2024-03-29T04:46:08;7.30;;;3.40;;
5199;SDS011;2619;47.868;11.892;2024-03-29T04:48:37;6.27;;;3.50;;
5199;SDS011;2619;47.868;11.892;2024-03-29T04:51:04;5.90;;;3.80;;
5199;SDS011;2619;47.868;11.892;2024-03-29T04:53:30;11.73;;;6.80;;
5199;SDS011;2619;47.868;11.892;2024-03-29T04:55:56;9.07;;;5.80;;
5199;SDS011;2619;47.868;11.892;2024-03-29T04:58:23;9.03;;;6.30;;
5199;SDS011;2619;47.868;11.892;2024-03-29T05:00:49;8.10;;;5.40;;
5199;SDS011;2619;47.868;11.892;2024-03-29T05:03:16;9.03;;;5.80;;
5199;SDS011;2619;47.868;11.892;2024-03-29T05:05:43;9.43;;;5.87;;
5199;SDS011;2619;47.868;11.892;2024-03-29T05:08:09;7.80;;;5.20;;
5199;SDS011;2619;47.868;11.892;2024-03-29T05:10:34;9.20;;;5.00;;
5199;SDS011;2619;47.868;11.892;2024-03-29T05:13:00;6.50;;;4.67;;
5199;SDS011;2619;47.868;11.892;2024-03-29T05:15:26;9.07;;;5.23;;
5199;SDS011;2619;47.868;11.892;2024-03-29T05:17:52;7.30;;;5.23;;
5199;SDS011;2619;47.868;11.892;2024-03-29T05:20:18;10.83;;;8.47;;
5199;SDS011;2619;47.868;11.892;2024-03-29T05:22:44;13.00;;;11.20;;
5199;SDS011;2619;47.868;11.892;2024-03-29T05:25:10;10.40;;;9.30;;
5199;SDS011;2619;47.868;11.892;2024-03-29T05:27:35;6.90;;;4.73;;
5199;SDS011;2619;47.868;11.892;2024-03-29T05:30:01;9.33;;;5.40;;
5199;SDS011;2619;47.868;11.892;2024-03-29T05:32:28;7.10;;;4.60;;
5199;SDS011;2619;47.868;11.892;2024-03-29T05:34:54;8.03;;;5.13;;
5199;SDS011;2619;47.868;11.892;2024-03-29T05:37:19;9.00;;;5.50;;
5199;SDS011;2619;47.868;11.892;2024-03-29T05:39:46;10.10;;;6.20;;
5199;SDS011;2619;47.868;11.892;2024-03-29T05:42:12;7.80;;;6.70;;
5199;SDS011;2619;47.868;11.892;2024-03-29T05:44:38;11.67;;;7.87;;
5199;SDS011;2619;47.868;11.892;2024-03-29T05:47:04;11.80;;;6.47;;
5199;SDS011;2619;47.868;11.892;2024-03-29T05:49:30;7.10;;;5.60;;
5199;SDS011;2619;47.868;11.892;2024-03-29T05:51:58;9.17;;;5.90;;
5199;SDS011;2619;47.868;11.892;2024-03-29T05:54:24;7.30;;;5.13;;
5199;SDS011;2619;47.868;11.892;2024-03-29T05:56:49;12.47;;;5.63;;
5199;SDS011;2619;47.868;11.892;2024-03-29T05:59:15;7.10;;;5.10;;
5199;SDS011;2619;47.868;11.892;2024-03-29T06:01:41;7.50;;;4.80;;
5199;SDS011;2619;47.868;11.892;2024-03-29T06:04:07;8.80;;;5.43;;
5199;SDS011;2619;47.868;11.892;2024-03-29T06:06:40;7.93;;;5.47;;
5199;SDS011;2619;47.868;11.892;2024-03-29T06:09:06;7.00;;;5.00;;
5199;SDS011;2619;47.868;11.892;2024-03-29T06:11:32;8.50;;;7.10;;
5199;SDS011;2619;47.868;11.892;2024-03-29T06:13:57;8.70;;;5.90;;
5199;SDS011;2619;47.868;11.892;2024-03-29T06:16:27;6.90;;;5.90;;
5199;SDS011;2619;47.868;11.892;2024-03-29T06:19:11;6.70;;;4.97;;
5199;SDS011;2619;47.868;11.892;2024-03-29T06:21:37;7.70;;;5.43;;
5199;SDS011;2619;47.868;11.892;2024-03-29T06:24:07;6.30;;;4.37;;
5199;SDS011;2619;47.868;11.892;2024-03-29T06:26:34;4.60;;;3.30;;
5199;SDS011;2619;47.868;11.892;2024-03-29T06:29:00;6.90;;;4.60;;
5199;SDS011;2619;47.868;11.892;2024-03-29T06:31:26;5.40;;;3.60;;
5199;SDS011;2619;47.868;11.892;2024-03-29T06:33:52;5.90;;;3.83;;
5199;SDS011;2619;47.868;11.892;2024-03-29T06:36:18;8.13;;;4.50;;
5199;SDS011;2619;47.868;11.892;2024-03-29T06:38:44;6.30;;;4.70;;
5199;SDS011;2619;47.868;11.892;2024-03-29T06:41:09;6.00;;;5.03;;
5199;SDS011;2619;47.868;11.892;2024-03-29T06:43:35;4.73;;;3.43;;
5199;SDS011;2619;47.868;11.892;2024-03-29T06:46:00;3.70;;;2.83;;
5199;SDS011;2619;47.868;11.892;2024-03-29T06:48:28;7.43;;;6.27;;
5199;SDS011;2619;47.868;11.892;2024-03-29T06:50:55;5.70;;;4.37;;
5199;SDS011;2619;47.868;11.892;2024-03-29T06:53:21;4.33;;;3.17;;
5199;SDS011;2619;47.868;11.892;2024-03-29T06:55:47;4.03;;;2.80;;
5199;SDS011;2619;47.868;11.892;2024-03-29T06:58:14;5.47;;;3.63;;
5199;SDS011;2619;47.868;11.892;2024-03-29T07:00:40;4.83;;;3.40;;
5199;SDS011;2619;47.868;11.892;2024-03-29T07:03:06;4.87;;;3.43;;
5199;SDS011;2619;47.868;11.892;2024-03-29T07:05:32;5.73;;;3.60;;
5199;SDS011;2619;47.868;11.892;2024-03-29T07:07:57;6.60;;;4.50;;
5199;SDS011;2619;47.868;11.892;2024-03-29T07:10:24;5.67;;;4.03;;
5199;SDS011;2619;47.868;11.892;2024-03-29T07:12:50;4.90;;;3.80;;
5199;SDS011;2619;47.868;11.892;2024-03-29T07:15:16;6.30;;;3.90;;
5199;SDS011;2619;47.868;11.892;2024-03-29T07:17:42;5.40;;;4.00;;
5199;SDS011;2619;47.868;11.892;2024-03-29T07:20:08;5.30;;;4.00;;
5199;SDS011;2619;47.868;11.892;2024-03-29T07:22:35;5.10;;;3.47;;
5199;SDS011;2619;47.868;11.892;2024-03-29T07:25:00;7.20;;;4.60;;
5199;SDS011;2619;47.868;11.892;2024-03-29T07:27:26;6.03;;;3.67;;
5199;SDS011;2619;47.868;11.892;2024-03-29T07:29:53;6.80;;;4.40;;
5199;SDS011;2619;47.868;11.892;2024-03-29T07:32:18;5.67;;;3.37;;
5199;SDS011;2619;47.868;11.892;2024-03-29T07:34:44;4.57;;;3.47;;
5199;SDS011;2619;47.868;11.892;2024-03-29T07:37:09;7.17;;;3.70;;
5199;SDS011;2619;47.868;11.892;2024-03-29T07:39:40;5.47;;;3.73;;
5199;SDS011;2619;47.868;11.892;2024-03-29T07:42:06;5.50;;;3.70;;
5199;SDS011;2619;47.868;11.892;2024-03-29T07:44:33;5.17;;;3.50;;
5199;SDS011;2619;47.868;11.892;2024-03-29T07:46:58;4.63;;;3.40;;
5199;SDS011;2619;47.868;11.892;2024-03-29T07:49:24;5.63;;;4.00;;
5199;SDS011;2619;47.868;11.892;2024-03-29T07:51:49;5.83;;;3.73;;
5199;SDS011;2619;47.868;11.892;2024-03-29T07:54:15;6.37;;;4.47;;
5199;SDS011;2619;47.868;11.892;2024-03-29T07:56:40;4.33;;;3.37;;
5199;SDS011;2619;47.868;11.892;2024-03-29T07:59:06;4.60;;;3.40;;
5199;SDS011;2619;47.868;11.892;2024-03-29T08:01:31;6.57;;;3.50;;
5199;SDS011;2619;47.868;11.892;2024-03-29T08:03:57;4.50;;;3.30;;
5199;SDS011;2619;47.868;11.892;2024-03-29T08:06:23;7.03;;;3.87;;
5199;SDS011;2619;47.868;11.892;2024-03-29T08:08:49;5.20;;;3.40;;
5199;SDS011;2619;47.868;11.892;2024-03-29T08:11:16;5.50;;;2.90;;
5199;SDS011;2619;47.868;11.892;2024-03-29T08:13:41;5.10;;;3.40;;
5199;SDS011;2619;47.868;11.892;2024-03-29T08:16:07;4.67;;;3.60;;
5199;SDS011;2619;47.868;11.892;2024-03-29T08:18:33;5.60;;;4.10;;
5199;SDS011;2619;47.868;11.892;2024-03-29T08:20:58;5.70;;;3.70;;
5199;SDS011;2619;47.868;11.892;2024-03-29T08:23:25;6.50;;;3.73;;
5199;SDS011;2619;47.868;11.892;2024-03-29T08:25:51;5.67;;;3.93;;
5199;SDS011;2619;47.868;11.892;2024-03-29T08:28:20;5.23;;;4.50;;
5199;SDS011;2619;47.868;11.892;2024-03-29T08:30:46;5.87;;;4.27;;
5199;SDS011;2619;47.868;11.892;2024-03-29T08:33:21;5.10;;;3.63;;
5199;SDS011;2619;47.868;11.892;2024-03-29T08:35:48;5.77;;;4.13;;
5199;SDS011;2619;47.868;11.892;2024-03-29T08:38:13;7.27;;;3.80;;
5199;SDS011;2619;47.868;11.892;2024-03-29T08:40:39;4.63;;;3.70;;
5199;SDS011;2619;47.868;11.892;2024-03-29T08:43:07;5.33;;;3.73;;
5199;SDS011;2619;47.868;11.892;2024-03-29T08:45:32;6.27;;;4.40;;
5199;SDS011;2619;47.868;11.892;2024-03-29T08:47:58;5.30;;;2.80;;
5199;SDS011;2619;47.868;11.892;2024-03-29T08:50:23;3.20;;;2.40;;
5199;SDS011;2619;47.868;11.892;2024-03-29T08:52:49;4.00;;;3.37;;
5199;SDS011;2619;47.868;11.892;2024-03-29T08:55:15;4.67;;;3.10;;
5199;SDS011;2619;47.868;11.892;2024-03-29T08:57:40;4.87;;;3.07;;
5199;SDS011;2619;47.868;11.892;2024-03-29T09:00:07;5.73;;;3.23;;
5199;SDS011;2619;47.868;11.892;2024-03-29T09:02:33;4.37;;;3.03;;
5199;SDS011;2619;47.868;11.892;2024-03-29T09:04:59;6.83;;;3.87;;
5199;SDS011;2619;47.868;11.892;2024-03-29T09:07:24;4.67;;;3.60;;
5199;SDS011;2619;47.868;11.892;2024-03-29T09:09:50;7.23;;;4.63;;
5199;SDS011;2619;47.868;11.892;2024-03-29T09:12:16;6.73;;;3.90;;
5199;SDS011;2619;47.868;11.892;2024-03-29T09:14:43;4.30;;;3.60;;
5199;SDS011;2619;47.868;11.892;2024-03-29T09:17:09;3.93;;;3.50;;
5199;SDS011;2619;47.868;11.892;2024-03-29T09:19:36;4.10;;;3.30;;
5199;SDS011;2619;47.868;11.892;2024-03-29T09:22:02;4.27;;;3.17;;
5199;SDS011;2619;47.868;11.892;2024-03-29T09:24:27;5.33;;;3.23;;
5199;SDS011;2619;47.868;11.892;2024-03-29T09:29:21;4.20;;;3.47;;
5199;SDS011;2619;47.868;11.892;2024-03-29T09:31:47;4.60;;;3.13;;
5199;SDS011;2619;47.868;11.892;2024-03-29T09:34:13;3.90;;;2.80;;
5199;SDS011;2619;47.868;11.892;2024-03-29T09:36:41;3.60;;;2.43;;
5199;SDS011;2619;47.868;11.892;2024-03-29T09:39:08;3.23;;;2.70;;
5199;SDS011;2619;47.868;11.892;2024-03-29T09:41:33;3.80;;;2.60;;
5199;SDS011;2619;47.868;11.892;2024-03-29T09:44:02;4.67;;;3.07;;
5199;SDS011;2619;47.868;11.892;2024-03-29T09:46:31;3.47;;;2.30;;
5199;SDS011;2619;47.868;11.892;2024-03-29T09:48:58;4.67;;;2.73;;
5199;SDS011;2619;47.868;11.892;2024-03-29T09:51:24;3.23;;;2.07;;
5199;SDS011;2619;47.868;11.892;2024-03-29T09:53:51;2.97;;;1.90;;
5199;SDS011;2619;47.868;11.892;2024-03-29T09:56:16;4.60;;;2.30;;
5199;SDS011;2619;47.868;11.892;2024-03-29T09:58:42;3.17;;;1.10;;
5199;SDS011;2619;47.868;11.892;2024-03-29T10:01:08;2.40;;;0.70;;
5199;SDS011;2619;47.868;11.892;2024-03-29T10:03:36;2.70;;;1.07;;
5199;SDS011;2619;47.868;11.892;2024-03-29T10:06:05;2.97;;;1.47;;
5199;SDS011;2619;47.868;11.892;2024-03-29T10:08:33;2.70;;;0.50;;
5199;SDS011;2619;47.868;11.892;2024-03-29T10:10:59;1.60;;;0.40;;
5199;SDS011;2619;47.868;11.892;2024-03-29T10:13:25;2.13;;;0.50;;
5199;SDS011;2619;47.868;11.892;2024-03-29T10:15:55;2.53;;;0.80;;
5199;SDS011;2619;47.868;11.892;2024-03-29T10:18:25;3.50;;;1.13;;
5199;SDS011;2619;47.868;11.892;2024-03-29T10:21:04;2.40;;;0.70;;
5199;SDS011;2619;47.868;11.892;2024-03-29T10:23:31;2.90;;;0.50;;
5199;SDS011;2619;47.868;11.892;2024-03-29T10:25:58;4.30;;;2.80;;
5199;SDS011;2619;47.868;11.892;2024-03-29T10:28:27;2.03;;;0.50;;
5199;SDS011;2619;47.868;11.892;2024-03-29T10:30:58;2.00;;;0.50;;
5199;SDS011;2619;47.868;11.892;2024-03-29T10:33:27;2.83;;;0.70;;
5199;SDS011;2619;47.868;11.892;2024-03-29T10:35:53;2.00;;;0.50;;
5199;SDS011;2619;47.868;11.892;2024-03-29T10:38:20;2.17;;;0.50;;
5199;SDS011;2619;47.868;11.892;2024-03-29T10:40:46;2.40;;;0.50;;
5199;SDS011;2619;47.868;11.892;2024-03-29T10:43:13;2.50;;;0.50;;
5199;SDS011;2619;47.868;11.892;2024-03-29T10:45:41;1.70;;;0.30;;
5199;SDS011;2619;47.868;11.892;2024-03-29T10:48:08;1.70;;;0.50;;
5199;SDS011;2619;47.868;11.892;2024-03-29T10:50:35;1.60;;;0.40;;
5199;SDS011;2619;47.868;11.892;2024-03-29T10:53:01;2.43;;;0.43;;
5199;SDS011;2619;47.868;11.892;2024-03-29T10:55:29;1.60;;;0.40;;
5199;SDS011;2619;47.868;11.892;2024-03-29T10:57:55;1.80;;;0.40;;
5199;SDS011;2619;47.868;11.892;2024-03-29T11:00:23;3.30;;;1.70;;
5199;SDS011;2619;47.868;11.892;2024-03-29T11:02:52;3.10;;;1.27;;
5199;SDS011;2619;47.868;11.892;2024-03-29T11:05:32;1.80;;;0.60;;
5199;SDS011;2619;47.868;11.892;2024-03-29T11:08:01;3.07;;;1.37;;
5199;SDS011;2619;47.868;11.892;2024-03-29T11:10:29;2.73;;;0.80;;
5199;SDS011;2619;47.868;11.892;2024-03-29T11:15:40;1.77;;;0.67;;
5199;SDS011;2619;47.868;11.892;2024-03-29T11:18:09;1.90;;;0.60;;
5199;SDS011;2619;47.868;11.892;2024-03-29T11:20:35;2.17;;;0.50;;
5199;SDS011;2619;47.868;11.892;2024-03-29T11:23:05;3.17;;;0.70;;
5199;SDS011;2619;47.868;11.892;2024-03-29T11:31:01;2.57;;;0.67;;
5199;SDS011;2619;47.868;11.892;2024-03-29T11:35:58;2.60;;;0.83;;
5199;SDS011;2619;47.868;11.892;2024-03-29T11:38:31;3.47;;;0.50;;
5199;SDS011;2619;47.868;11.892;2024-03-29T11:43:34;2.60;;;1.00;;
5199;SDS011;2619;47.868;11.892;2024-03-29T11:46:01;2.27;;;0.80;;
5199;SDS011;2619;47.868;11.892;2024-03-29T11:48:28;1.73;;;0.50;;
5199;SDS011;2619;47.868;11.892;2024-03-29T11:50:58;1.90;;;0.70;;
5199;SDS011;2619;47.868;11.892;2024-03-29T11:53:25;2.97;;;0.83;;
5199;SDS011;2619;47.868;11.892;2024-03-29T11:55:55;1.70;;;0.60;;
5199;SDS011;2619;47.868;11.892;2024-03-29T11:58:24;2.70;;;0.50;;
5199;SDS011;2619;47.868;11.892;2024-03-29T12:00:51;3.87;;;0.80;;
5199;SDS011;2619;47.868;11.892;2024-03-29T12:03:18;1.80;;;0.50;;
5199;SDS011;2619;47.868;11.892;2024-03-29T12:05:47;2.63;;;0.90;;
5199;SDS011;2619;47.868;11.892;2024-03-29T12:08:13;2.60;;;0.57;;
5199;SDS011;2619;47.868;11.892;2024-03-29T12:10:39;1.97;;;0.70;;
5199;SDS011;2619;47.868;11.892;2024-03-29T12:13:06;5.03;;;0.63;;
5199;SDS011;2619;47.868;11.892;2024-03-29T12:15:32;2.47;;;0.67;;
5199;SDS011;2619;47.868;11.892;2024-03-29T12:18:04;2.10;;;0.50;;
5199;SDS011;2619;47.868;11.892;2024-03-29T12:20:37;1.77;;;0.47;;
5199;SDS011;2619;47.868;11.892;2024-03-29T12:23:08;2.70;;;1.07;;
5199;SDS011;2619;47.868;11.892;2024-03-29T12:25:35;2.40;;;0.73;;
5199;SDS011;2619;47.868;11.892;2024-03-29T12:28:02;1.90;;;0.47;;
5199;SDS011;2619;47.868;11.892;2024-03-29T12:30:28;2.27;;;0.60;;
5199;SDS011;2619;47.868;11.892;2024-03-29T12:33:13;1.80;;;0.60;;
5199;SDS011;2619;47.868;11.892;2024-03-29T12:35:43;2.07;;;0.63;;
5199;SDS011;2619;47.868;11.892;2024-03-29T12:38:11;3.00;;;0.80;;
5199;SDS011;2619;47.868;11.892;2024-03-29T12:40:41;2.57;;;0.90;;
5199;SDS011;2619;47.868;11.892;2024-03-29T12:43:08;1.70;;;0.50;;
5199;SDS011;2619;47.868;11.892;2024-03-29T12:45:35;1.73;;;0.47;;
5199;SDS011;2619;47.868;11.892;2024-03-29T12:48:09;1.60;;;0.50;;
5199;SDS011;2619;47.868;11.892;2024-03-29T12:50:42;3.30;;;0.67;;
5199;SDS011;2619;47.868;11.892;2024-03-29T12:53:09;2.10;;;0.50;;
5199;SDS011;2619;47.868;11.892;2024-03-29T12:55:42;3.20;;;0.80;;
5199;SDS011;2619;47.868;11.892;2024-03-29T12:58:10;1.93;;;0.40;;
5199;SDS011;2619;47.868;11.892;2024-03-29T13:00:37;1.40;;;0.30;;
5199;SDS011;2619;47.868;11.892;2024-03-29T13:03:04;1.50;;;0.37;;
5199;SDS011;2619;47.868;11.892;2024-03-29T13:05:31;1.40;;;0.30;;
5199;SDS011;2619;47.868;11.892;2024-03-29T13:08:10;1.50;;;0.30;;
5199;SDS011;2619;47.868;11.892;2024-03-29T13:10:37;1.30;;;0.20;;
5199;SDS011;2619;47.868;11.892;2024-03-29T13:13:04;1.40;;;0.30;;
5199;SDS011;2619;47.868;11.892;2024-03-29T13:15:31;1.40;;;0.30;;
5199;SDS011;2619;47.868;11.892;2024-03-29T13:17:58;1.40;;;0.30;;
5199;SDS011;2619;47.868;11.892;2024-03-29T13:20:25;1.40;;;0.30;;
5199;SDS011;2619;47.868;11.892;2024-03-29T13:22:51;1.67;;;0.30;;
5199;SDS011;2619;47.868;11.892;2024-03-29T13:25:20;1.40;;;0.30;;
5199;SDS011;2619;47.868;11.892;2024-03-29T13:27:48;1.40;;;0.20;;
5199;SDS011;2619;47.868;11.892;2024-03-29T13:30:18;1.40;;;0.30;;
5199;SDS011;2619;47.868;11.892;2024-03-29T13:32:45;1.40;;;0.30;;
5199;SDS011;2619;47.868;11.892;2024-03-29T13:35:10;1.97;;;0.30;;
5199;SDS011;2619;47.868;11.892;2024-03-29T13:37:40;1.37;;;0.30;;
5199;SDS011;2619;47.868;11.892;2024-03-29T13:40:13;1.40;;;0.30;;
5199;SDS011;2619;47.868;11.892;2024-03-29T13:42:39;3.20;;;0.30;;
5199;SDS011;2619;47.868;11.892;2024-03-29T13:45:06;1.40;;;0.30;;
5199;SDS011;2619;47.868;11.892;2024-03-29T13:47:33;1.40;;;0.30;;
5199;SDS011;2619;47.868;11.892;2024-03-29T13:49:59;1.40;;;0.30;;
5199;SDS011;2619;47.868;11.892;2024-03-29T13:52:25;1.50;;;0.30;;
5199;SDS011;2619;47.868;11.892;2024-03-29T13:54:52;1.40;;;0.30;;
5199;SDS011;2619;47.868;11.892;2024-03-29T13:57:18;1.40;;;0.30;;
5199;SDS011;2619;47.868;11.892;2024-03-29T13:59:44;1.80;;;0.40;;
5199;SDS011;2619;47.868;11.892;2024-03-29T14:02:11;2.23;;;0.30;;
5199;SDS011;2619;47.868;11.892;2024-03-29T14:04:42;1.40;;;0.30;;
5199;SDS011;2619;47.868;11.892;2024-03-29T14:07:08;1.40;;;0.30;;
5199;SDS011;2619;47.868;11.892;2024-03-29T14:09:38;1.50;;;0.30;;
5199;SDS011;2619;47.868;11.892;2024-03-29T14:12:07;1.47;;;0.30;;
5199;SDS011;2619;47.868;11.892;2024-03-29T14:14:33;1.70;;;0.23;;
5199;SDS011;2619;47.868;11.892;2024-03-29T14:16:59;2.60;;;0.30;;
5199;SDS011;2619;47.868;11.892;2024-03-29T14:19:34;1.40;;;0.30;;
5199;SDS011;2619;47.868;11.892;2024-03-29T14:22:01;1.60;;;0.30;;
5199;SDS011;2619;47.868;11.892;2024-03-29T14:24:31;1.40;;;0.30;;
5199;SDS011;2619;47.868;11.892;2024-03-29T14:27:00;1.37;;;0.30;;
5199;SDS011;2619;47.868;11.892;2024-03-29T14:29:32;1.50;;;0.30;;
5199;SDS011;2619;47.868;11.892;2024-03-29T14:31:58;1.40;;;0.30;;
5199;SDS011;2619;47.868;11.892;2024-03-29T14:34:25;1.50;;;0.30;;
5199;SDS011;2619;47.868;11.892;2024-03-29T14:36:51;1.50;;;0.30;;
5199;SDS011;2619;47.868;11.892;2024-03-29T14:39:17;1.40;;;0.30;;
5199;SDS011;2619;47.868;11.892;2024-03-29T14:41:46;1.73;;;0.33;;
5199;SDS011;2619;47.868;11.892;2024-03-29T14:44:16;1.60;;;0.30;;
5199;SDS011;2619;47.868;11.892;2024-03-29T14:46:42;1.60;;;0.30;;
5199;SDS011;2619;47.868;11.892;2024-03-29T14:49:09;2.30;;;0.30;;
5199;SDS011;2619;47.868;11.892;2024-03-29T14:51:36;1.50;;;0.30;;
5199;SDS011;2619;47.868;11.892;2024-03-29T14:54:03;1.60;;;0.30;;
5199;SDS011;2619;47.868;11.892;2024-03-29T14:56:29;1.60;;;0.30;;
5199;SDS011;2619;47.868;11.892;2024-03-29T14:59:01;1.40;;;0.30;;
5199;SDS011;2619;47.868;11.892;2024-03-29T15:01:30;2.17;;;0.30;;
5199;SDS011;2619;47.868;11.892;2024-03-29T15:03:55;2.10;;;0.30;;
5199;SDS011;2619;47.868;11.892;2024-03-29T15:06:21;1.47;;;0.30;;
5199;SDS011;2619;47.868;11.892;2024-03-29T15:08:48;1.40;;;0.30;;
5199;SDS011;2619;47.868;11.892;2024-03-29T15:11:14;1.40;;;0.30;;
5199;SDS011;2619;47.868;11.892;2024-03-29T15:13:40;1.40;;;0.30;;
5199;SDS011;2619;47.868;11.892;2024-03-29T15:16:06;1.40;;;0.30;;